EmailTwitter


Surface observations / France / LFBO (07630)

Regions: Quebec | Canada | USA | Europe | France | UK | Elsewhere
Station
Display
Info & Location for LFBO (07630) | Help decoding METAR

Weather Conditions observed on 2018/02/23 at 02:00 UTC at TOULOUSE/BLAGNAC, FR (LFBO)

Sky conditions: overcast.

Temperature: 3.0 Celsius.

Dewpoint: -4.0 Celsius.

Relative Humidity: 60%

Windchill Factor: 0.

Winds: Northwest at 11 km/h or 6 knots.

Mean Sea level Pressure: 100.90 kilopascals.

Horizontal visibility: 6.21 statute miles or 9.94 kilometers.

Height of the Ceiling: 1341 metres ( 4400 feet ).

Coded METAR:

LFBO 230200Z AUTO 30006KT 9999 OVC044 03/M04 Q1009 NOSIG=